createdAt,value
2023-04-27T06:50:05.158Z,17.1
2023-04-27T06:55:39.576Z,17.2
2023-04-27T07:01:24.024Z,17.3
2023-04-27T07:07:02.510Z,17.6
2023-04-27T07:12:41.064Z,17.9
2023-04-27T07:18:17.218Z,17.8
2023-04-27T07:23:54.378Z,18
2023-04-27T07:29:31.673Z,18.1
2023-04-27T07:35:10.885Z,18.2
2023-04-27T07:40:46.379Z,18.7
2023-04-27T07:46:23.248Z,18.8
2023-04-27T07:52:22.256Z,19.1
2023-04-27T07:57:56.705Z,19.4
2023-04-27T08:03:33.044Z,19.2
2023-04-27T08:09:11.483Z,19.5
2023-04-27T08:14:50.627Z,19.8
2023-04-27T08:20:26.397Z,19.8
2023-04-27T08:26:01.876Z,19.8
2023-04-27T08:31:38.065Z,20.2
2023-04-27T08:37:17.374Z,20.7
2023-04-27T08:42:53.214Z,20.9
2023-04-27T08:48:29.050Z,20.9
2023-04-27T08:54:05.611Z,21.1
2023-04-27T08:59:41.128Z,21.6
2023-04-27T09:05:18.285Z,22
2023-04-27T09:10:55.391Z,22.4
2023-04-27T09:16:31.214Z,22.4
2023-04-27T09:22:07.237Z,22.2
2023-04-27T09:27:43.389Z,22.1
2023-04-27T09:33:18.383Z,21.9
2023-04-27T09:38:53.869Z,22.2
2023-04-27T09:44:29.696Z,22.6
2023-04-27T09:50:05.008Z,22.7
2023-04-27T09:55:41.055Z,23
2023-04-27T10:01:16.581Z,23.2
2023-04-27T10:06:53.087Z,23
2023-04-27T10:12:33.374Z,23.3
2023-04-27T10:18:10.068Z,23.6
2023-04-27T10:23:48.117Z,23.7
2023-04-27T10:29:25.071Z,24.2
2023-04-27T10:35:00.983Z,24.6
2023-04-27T10:40:37.396Z,25.3
2023-04-27T10:46:14.033Z,25.6
2023-04-27T10:51:50.746Z,26
2023-04-27T10:57:26.314Z,26.2
2023-04-27T11:03:02.224Z,25.9
2023-04-27T11:08:39.311Z,25.4
2023-04-27T11:14:14.658Z,25.6
2023-04-27T11:19:52.236Z,25.7
2023-04-27T11:25:27.549Z,26.5
2023-04-27T11:31:02.423Z,27.4
2023-04-27T11:36:38.540Z,26.9
2023-04-27T11:42:14.057Z,26.7
2023-04-27T11:47:49.608Z,26.8
2023-04-27T11:53:25.492Z,26.8
2023-04-27T11:59:01.134Z,26.9
2023-04-27T12:04:36.886Z,27.1
2023-04-27T12:10:15.640Z,27.3
2023-04-27T12:15:51.068Z,27.5
2023-04-27T12:21:27.482Z,27.7
2023-04-27T12:27:04.363Z,27.5
2023-04-27T12:32:40.168Z,27.3
2023-04-27T12:38:16.381Z,27.3
2023-04-27T12:43:52.846Z,28.1
2023-04-27T12:49:31.163Z,28.6
2023-04-27T12:55:07.642Z,28.1
2023-04-27T13:01:09.579Z,27.9
2023-04-27T13:06:47.154Z,29
2023-04-27T13:12:23.549Z,29
2023-04-27T13:17:59.201Z,28.6
2023-04-27T13:23:36.223Z,29.1
2023-04-27T13:29:12.392Z,30.4
2023-04-27T13:34:48.238Z,30.8
2023-04-27T13:40:24.718Z,31.7
2023-04-27T13:46:01.032Z,31.1
2023-04-27T13:51:37.994Z,31.1
2023-04-27T13:57:14.026Z,31.2
2023-04-27T14:02:49.804Z,31.8
2023-04-27T14:08:27.268Z,32.5
2023-04-27T14:14:03.224Z,33.1
2023-04-27T14:19:38.844Z,34
2023-04-27T14:25:14.113Z,32.1
2023-04-27T14:30:50.688Z,31.2
2023-04-27T14:36:26.323Z,31
2023-04-27T14:42:01.523Z,35.7
2023-04-27T14:47:37.617Z,35.9
2023-04-27T14:53:13.775Z,39.4
2023-04-27T14:58:49.199Z,39.8
2023-04-27T15:04:24.956Z,37.6
2023-04-27T15:10:02.453Z,40.4
2023-04-27T15:15:37.831Z,43.4
2023-04-27T15:21:14.351Z,46.3
2023-04-27T15:26:50.766Z,41
2023-04-27T15:32:26.053Z,38.1
2023-04-27T15:38:01.099Z,35.7
2023-04-27T15:43:38.055Z,34
2023-04-27T15:49:14.093Z,33.2
2023-04-27T15:54:51.115Z,33.9
2023-04-27T16:00:27.034Z,33
2023-04-27T16:06:02.685Z,32.1
2023-04-27T16:11:38.157Z,31.5
2023-04-27T16:17:13.640Z,37.7
2023-04-27T16:22:49.494Z,42.8
2023-04-27T16:28:27.178Z,43.5
2023-04-27T16:34:03.323Z,44.2
2023-04-27T16:39:40.770Z,37
2023-04-27T16:45:16.231Z,32.4
2023-04-27T16:50:52.702Z,30.6
2023-04-27T16:56:30.845Z,30.6
2023-04-27T17:02:16.809Z,30.4
2023-04-27T17:08:03.099Z,29.5
2023-04-27T17:13:40.826Z,29.2
2023-04-27T17:19:17.177Z,28.7
2023-04-27T17:24:53.339Z,27.9
2023-04-27T17:30:28.748Z,27.5
2023-04-27T17:36:04.250Z,27.8
2023-04-27T17:41:39.462Z,27.7
2023-04-27T17:47:14.625Z,27.1
2023-04-27T17:52:51.221Z,26.8
2023-04-27T18:04:04.681Z,25.6
2023-04-27T18:09:42.519Z,25.4
2023-04-27T18:15:18.396Z,25
2023-04-27T18:20:54.273Z,24.4
2023-04-27T18:26:29.686Z,24
2023-04-27T18:32:06.226Z,23.8
2023-04-27T18:37:42.450Z,23.3
2023-04-27T18:43:18.004Z,22.9
2023-04-27T18:48:54.186Z,22.6
2023-04-27T18:54:29.256Z,22.4
2023-04-27T19:00:05.119Z,22.2
2023-04-27T19:05:40.919Z,22.1
2023-04-27T19:11:17.576Z,22.1
2023-04-27T19:16:52.941Z,22
2023-04-27T19:22:28.731Z,21.9
2023-04-27T19:28:04.108Z,21.9
2023-04-27T19:33:46.622Z,21.7
2023-04-27T19:39:39.342Z,21.5
2023-04-27T19:45:18.078Z,21.3
2023-04-27T19:50:53.658Z,21.1
2023-04-27T19:56:30.218Z,21
2023-04-27T20:02:07.101Z,21
2023-04-27T20:07:44.159Z,20.8
2023-04-27T20:13:21.160Z,20.7
2023-04-27T20:18:56.758Z,20.7
2023-04-27T20:24:32.064Z,20.6
2023-04-27T20:30:07.529Z,20.4
2023-04-27T20:35:42.904Z,20.3
2023-04-27T20:41:18.875Z,20.9
2023-04-27T20:47:01.655Z,21.2
2023-04-27T20:52:36.780Z,21.2
2023-04-27T20:58:12.889Z,21.2
2023-04-27T21:03:51.436Z,21.2
2023-04-27T21:09:28.847Z,21.2
2023-04-27T21:15:04.494Z,21.2
2023-04-27T21:20:40.436Z,21.1
2023-04-27T21:26:15.837Z,21.1
2023-04-27T21:31:51.740Z,21.1
2023-04-27T21:37:27.172Z,21.1
